Ana Sayfa
METAR-TAF:

METAR-TAF

Havaalanları :

Samsun Çarşamba Havalimanı

Samsun, Türkiye

Enlem: 41-15-15N, Boylam: 036-34-03E, yükseklik: 5 m

Güncel hava durumu gözlemi

Rapor saat 23:50 UTC de 53 dakika önce yapıldı.
Rüzgar güneydan 6 kt
Sıcaklık 8°C
Nem 53%
Basınç 1011 hPa
Görüş mesafesi 10 km veya daha fazla
1500 m altında bulut yok ve kümülonimbus yok

METAR: LTFH 232350Z 17006KT CAVOK 08/M01 Q1011 NOSIG

Saat: 03:43 (00:43 UTC)

Tahmin

Rapor saat 22:40 UTC de 2 saat ve 3 dakika önce yapıldı.
Ayın 24'si saat 00 UTC'den ayın 24'si saat 09 UTC'ye kadar geçerli Tahmin
Rüzgar güney/güneydoğudan 9 kt
Görüş mesafesi 10 km veya daha fazla
1500 m altında bulut yok ve kümülonimbus yok

TAF: LTFH 232240Z 2400/2409 16009KT CAVOK

4.000'den fazla havaalanı için hava durumu gözlemleri ve tahminleri (METAR ve TAF raporları).

Kullanılabilir istasyonlar harita üzerinde sarı ve kırmızı noktalarla gösterilir.

İstasyonun adını görmek için fareyi noktanın üzerinde gezdirin.

Sonrasında hava gözlem ve tahminlerini görmek için tıklayın.

Haritayı değiştirmek için: yaklaştırmak için siyah artı işaretli yeşil düğmeye ve uzaklaştırmak için de eksi işaretli düğmeye hızla tıklayın; bitişik haritalar için yeşil okları kullanın.


METAR-TAF: